This is the latest recevied weather packets stored in our database for station/object SP6KBU-8. If no packets are shown the sender has not sent any weather packets the latest 10 day(s).
| Time | Temp. | Humidity | Pressure | Rain* | Wind** | Luminosity | Snow |
|---|---|---|---|---|---|---|---|
| 1777721819 | 25.56° C | 20% | 1024.3 hPa | - | - | - | - |
| 1777720920 | 25.56° C | 21% | 1024.4 hPa | - | - | - | - |
| 1777720020 | 26.11° C | 21% | 1024.6 hPa | - | - | - | - |
| 1777719121 | 25.56° C | 21% | 1024.8 hPa | - | - | - | - |
| 1777718221 | 25.56° C | 21% | 1024.9 hPa | - | - | - | - |
| 1777717322 | 25.56° C | 20% | 1025.1 hPa | - | - | - | - |
| 1777716423 | 26.67° C | 19% | 1025.2 hPa | - | - | - | - |
| 1777715525 | 26.11° C | 20% | 1025.4 hPa | - | - | - | - |
| 1777714626 | 25.56° C | 20% | 1025.7 hPa | - | - | - | - |
| 1777713727 | 26.11° C | 20% | 1025.8 hPa | - | - | - | - |
| 1777712828 | 25.56° C | 19% | 1026.1 hPa | - | - | - | - |
| 1777711929 | 25.56° C | 19% | 1026.1 hPa | - | - | - | - |
| 1777711032 | 26.11° C | 19% | 1026.2 hPa | - | - | - | - |
| 1777710136 | 26.67° C | 17% | 1026.2 hPa | - | - | - | - |
| 1777709237 | 27.22° C | 20% | 1026.4 hPa | - | - | - | - |
| 1777708340 | 26.67° C | 17% | 1026.4 hPa | - | - | - | - |
| 1777706545 | 26.11° C | 23% | 1026.5 hPa | - | - | - | - |
| 1777705643 | 25° C | 25% | 1026.4 hPa | - | - | - | - |
| 1777704745 | 22.78° C | 29% | 1026.4 hPa | - | - | - | - |
| 1777703847 | 21.11° C | 35% | 1026.4 hPa | - | - | - | - |
| 1777702948 | 19.44° C | 37% | 1026.4 hPa | - | - | - | - |
| 1777702051 | 17.78° C | 40% | 1026.4 hPa | - | - | - | - |
| 1777701152 | 16.11° C | 43% | 1026.4 hPa | - | - | - | - |
| 1777700254 | 15° C | 45% | 1026.4 hPa | - | - | - | - |
| 1777699359 | 13.33° C | 48% | 1026.5 hPa | - | - | - | - |
* Rain since midnight (hover to see other rain measurements)
** Current wind speed in m/s (hover to see current wind gust speed)